Jump to content

  •  

SOUTHWEST AIRLINES FLIGHT WN1437 FLOWN ON 11-17-2017 BY CAPTAIN TYLER HANUS

Pilot StatsCaptain Tyler Hanus (LDP525) • 262.7 total hours • 63 total flights [View Logbook]
FLIGHT DETAILS
StatusReceived and approved on 2017-11-17 at 11:11:11
Origin AirportLambert-St Louis Intl (KSTL) • St Louis, Missouri, United States (604 feet MSL)
Filed Flight PlanFLIGHT PLANNER OFFLINE
Destination AirportBaltimore-Washington Intl (KBWI) • Baltimore, Maryland, United States (146 feet MSL)
Alternate AirportNone Filed
AirlineSouthwest Airlines
AircraftBoeing 737-700 | Winglets (73W / B737-700)
FS Aircraft UsedBoeing 737-7H4NG Southwest Airlines N708SW Goldstar Textures
Cruising AltitudeFL410
Distance Flown639 nautical miles
Passengers Onboard61 passengers (44.85% full)
DEPARTURE DETAILS
Time Out07:59:33
Taxi Data115,119 lbs total with 16,451 lbs of fuel onboard
Takeoff Data08:12:42 (13 minutes after leaving gate/ramp) • 114,645 lbs total • 4° pitch at 133 knots
Departure METARKSTL 171151Z 13011KT 5SM BR OVC006 01/01 A3008 RMK AO2 SLP192 T00110006 10022 21006 56015
ARRIVAL DETAILS
Landing Data11:08:41 • 104,697 lbs total • 3° pitch doing 107 knots at a rate of -43.83 feet/minute with 5,856 lbs of fuel onboard
Time In11:13:15 (5 minutes after landing)
Ramp Weight104,524 lbs total
Total Fuel Used10,595 lbs
Total Block Time02:06:35 (2.1 hours) while 18 minutes were spent on the ground
Arrival METARKBWI 171554Z 30011KT 10SM FEW048 FEW250 09/M02 A3021 RMK AO2 SLP229 T00891022
MISCELLANEOUS DETAILS
LiveDISPATCH Version4.8.3.1
FS Version
FSUIPC Version4.97
OS VersionWindows 7 32-bit
Screen Resolution1360 x 768
Pilot's CommentsNo Comments Reported
FLIGHT MAP